Observations for PERUGIA, Italy (LIRZ)

LIRZ 191950Z 01004KT CAVOK 13/11 Q1018  
LIRZ 191850Z 01004KT CAVOK 14/11 Q1018  
LIRZ 191750Z 03003KT CAVOK 16/11 Q1017  
LIRZ 191650Z 19004KT CAVOK 19/11 Q1017  
LIRZ 191550Z 19005KT 9999 FEW050 22/11 Q1017
LIRZ 191450Z 21008KT 9999 FEW045 22/10 Q1017
LIRZ 191350Z 22009KT 9999 SCT045 22/11 Q1017
LIRZ 191250Z 19008KT 150V230 9999 SCT045 22/11 Q1017
LIRZ 191150Z 22009KT 200V310 9999 SCT045 21/12 Q1018
LIRZ 191050Z VRB03KT 9999 FEW040 21/13 Q1018
LIRZ 190950Z VRB02KT 9999 FEW045 18/12 Q1019
LIRZ 190850Z VRB02KT 9999 FEW045 17/11 Q1019
LIRZ 190750Z VRB01KT 9999 FEW070 15/11 Q1019
LIRZ 190650Z 36003KT 9999 FEW060 12/10 Q1018
LIRZ 190550Z 34002KT 9999 SCT060 11/10 Q1018
LIRZ 190450Z AUTO 35004KT 300V360 9999 SCT038/// BKN210/// 12/10 Q1018  
LIRZ 190450Z AUTO 35004KT 300V360 9999 SCT038 BKN210 12/10 Q1018
LIRZ 190350Z AUTO 34005KT 9999 FEW033/// BKN045/// 11/10 Q1018  
LIRZ 190350Z AUTO 34005KT 9999 FEW033 BKN045 11/10 Q1018
LIRZ 190250Z AUTO 32004KT 9999 SCT033/// 12/10 Q1018
LIRZ 190250Z AUTO 32004KT 9999 SCT033 12/10 Q1018
LIRZ 190150Z AUTO 01006KT 9999 BKN039/// 12/10 Q1018
LIRZ 190150Z AUTO 01006KT 9999 BKN039 12/10 Q1018
LIRZ 190050Z AUTO VRB01KT 9999 NCD 11/09 Q1018  
LIRZ 182350Z AUTO 34004KT 270V010 9999 FEW041/// 12/10 Q1018
LIRZ 182350Z AUTO 34004KT 270V010 9999 FEW041 12/10 Q1018
LIRZ 182250Z AUTO 35003KT 9999 SCT051/// 12/09 Q1018
LIRZ 182250Z AUTO 35003KT 9999 SCT051 12/09 Q1018
LIRZ 182150Z AUTO 35005KT 9999 NCD 13/10 Q1018  
LIRZ 182050Z 35006KT 9999 FEW040 14/10 Q1019
LIRZ 181950Z 36003KT 9999 FEW040 15/10 Q1018